Ridgeway, South Carolina
Current Conditions -  °F | °C
As of 11:55 AM on Tuesday 27 Jan 2015 (Local Time) from KFDW Reporting Station
Clear Clear  
Wind Chill: 35°   Ceiling: Unl
Heat Index: 39°   Visibility: 10mi
Dew Point: 27°   Wind: 6mph
Humidity: 61%   Direction: 310°NW
Pressure: 29.88"   Gusts: NA
Location:  34.31°N, 80.96°W
Report Text: KFDW 271655Z AUTO 31005KT 10SM CLR 04/M03 A2988 RMK AO1
Loading
Personal Weather Stations






























Interactive Weather Map New forecast layout! Learn more

10-Day Weather Forecast

Advertisements
Track Severe Weather on mobile